Cleveland, Illinois
Current Conditions -  °F | °C
As of 8:24 AM on Saturday 25 Oct 2014 (Local Time) from KMLI Reporting Station
Haze Haze  
Wind Chill: 52°   Ceiling: Unl
Heat Index: 52°   Visibility: 2mi
Dew Point: 51°   Wind: 5mph
Humidity: 97%   Direction: 280°W
Pressure: 30"   Gusts: NA
Location:  41.4426°N, 90.3628°W
Report Text: KMLI 251324Z 28004KT 2SM BR CLR 11/11 A3000 RMK AO2 T01110106 $
Loading
Personal Weather Stations






























Interactive Weather Map
Tropical Storm Tracking
New forecast layout! Learn more

10-Day Weather Forecast

Advertisements
Track Severe Weather on mobile